x

Grays Reef - 40 Nm Southeast Of Savannah, Ga (41008) Wave Buoy

11:50am - Sat 25th Apr 2015 All times are EDT. -4 hours from GMT.

  • Sig Wave height 2.3ft
  • Swell Direction
  • Peak Period 8s
  • Average Period 4s
  • Wind
    13mph, 16mph gusts
  • Sea Temp 69°f
  • Air Temp 70°f
  • Sea Pressure 1012.1mb
  • Grays Reef - 40 Nm Southeast Of Savannah, Ga
  • Grays Reef - 40 Nm Southeast Of Savannah, Ga

More Historic Weather Station data

Upgrade to MSW Pro to gain access to the past 30 days of data for over 8000 Wavebouys and Weather Stations around the globe.

Join Pro

Comparision Forecast

View Surf forecast
   
Sat 04/25 11:50am 2.5ft 8s 4s 13 16 mph 1012.1mb 69f 70f
10:50am 2.5ft 8s 5s 13 16 mph 1012.7mb 69f 70f
9:50am 2.5ft 8s 5s 11 13 mph 1013mb 69f 70f
8:50am 2.5ft 8s 6s 4 7 mph 1014.1mb 69f 70f
7:50am 2.5ft 9s 6s 7 9 mph 1013.8mb 69f 70f
6:50am 2.5ft 9s 6s 9
mph
1013.4mb 69f 70f
5:50am 2.5ft 9s 6s 7 9 mph 1013.2mb 69f 70f
4:50am 2.5ft 9s 6s 7 9 mph 1013.2mb 69f 70f
3:50am 3ft 9s 6s 9 11 mph 1013.6mb 69f 69f
2:50am 3ft 15s 5s 9 11 mph 1014.2mb 69f 69f
1:50am 3.5ft 9s 5s 11 13 mph 1014.9mb 69f 69f
12:50am 3.5ft 8s 5s 9 11 mph 1015.9mb 69f 68f
Fri 04/24 11:50pm 3.5ft 7s 5s 13 16 mph 1015.5mb 69f 68f
10:50pm 3.5ft 7s 5s 13 16 mph 1015.9mb 69f 67f
9:50pm 3.5ft 7s 5s 13 16 mph 1016.2mb 69f 67f
8:50pm 3.5ft 7s 5s 9 11 mph 1017mb 69f 66f
7:50pm 4.5ft 8s 5s 11
mph
1016.9mb 69f 66f
6:50pm 4.5ft 7s 6s 9 11 mph 1017.2mb 69f 66f
5:50pm 4.5ft 7s 5s 11 13 mph 1017mb 69f 65f
4:50pm 4.5ft 7s 5s 11 13 mph 1017mb 69f 65f
3:50pm 4.5ft 6s 5s 13 18 mph 1017.2mb 69f 65f
2:50pm 4.5ft 6s 5s 16 18 mph 1018mb 69f 65f
1:50pm 4.5ft 6s 5s 18 22 mph 1018.4mb 69f 64f
12:50pm 5ft 6s 5s 20 25 mph 1017.6mb 69f 64f
11:50am 5ft 5s 4s 22 25 mph 1017.9mb 69f 64f
10:50am 4.5ft 5s 4s 22 27 mph 1017.7mb 69f 65f
9:50am 4.5ft 5s 4s 22 27 mph 1017.4mb 69f 65f
8:50am 3.5ft 4s 4s 22 27 mph 1016.3mb 69f 66f
7:50am 3ft 4s 4s 22 27 mph 1015.9mb 69f 67f
6:50am 2.5ft 4s 4s 20 25 mph 1015.1mb 69f 67f
5:50am 2ft 13s 3s 20 22 mph 1014.7mb 69f 68f
4:50am 1.3ft 14s 7s 18 22 mph 1014mb 69f 70f
3:50am 1.6ft 16s 8s 9 11 mph 1013.7mb 70f 71f
2:50am 1.3ft 15s 7s 7
mph
1013.6mb 70f 71f
1:50am 1.3ft 14s 6s 7
mph
1013.7mb 70f 71f
12:50am 1.3ft 15s 6s 9
mph
1013.7mb 70f 71f
Thu 04/23 11:50pm 1.6ft 17s 6s 9 11 mph 1013.8mb 70f 72f
10:50pm 1.3ft 14s 5s 7 9 mph 1013.3mb 71f 71f
9:50pm 1.3ft 15s 5s 7 9 mph 1012.9mb 70f 71f
8:50pm 1.3ft 14s 5s 9
mph
1012.8mb 71f 72f
7:50pm 1.3ft 13s 5s 9
mph
1012.9mb 71f 72f
6:50pm 1.3ft 10s 4s 7 9 mph 1012.9mb 71f 72f
5:50pm 1.3ft 9s 5s 9 11 mph 1012.9mb 71f 72f
4:50pm 1.3ft 9s 5s 11 13 mph 1012.7mb 71f 72f
3:50pm 1.3ft 8s 5s 7 9 mph 1012.9mb 72f 73f
2:50pm 1.3ft 12s 4s 4
mph
1013.4mb 71f 72f
1:50pm 1.3ft 9s 4s 4 7 mph 1014mb 71f 72f
12:50pm 1.3ft 13s 4s 2 4 mph 1014.6mb 72f 71f
11:50am 1.3ft 8s 4s 2
mph
1014.8mb 70f 70f
10:50am 1.3ft 8s 4s 4
mph
1014.8mb 69f 69f
9:50am 1.3ft 11s 4s 7
mph
1014.7mb 69f 69f
8:50am 1.6ft 8s 4s 9
mph
1014.8mb 69f 69f
7:50am 1.3ft 8s 4s 9 11 mph 1014.5mb 69f 69f
6:50am 1.3ft 3s 4s 9 11 mph 1014mb 69f 69f
5:50am 1.6ft 4s 4s 9
mph
1013.5mb 69f 69f
4:50am 2ft 4s 4s 9
mph
1013.3mb 69f 69f
3:50am 2ft 3s 4s 11 13 mph 1013.3mb 69f 70f
2:50am 2ft 3s 3s 13 18 mph 1013.2mb 69f 70f
1:50am 1.6ft 3s 3s 13 16 mph 1013.7mb 69f 70f
12:50am 1.6ft 3s 3s 13
mph
1014mb 69f 70f
Wed 04/22 11:50pm 1.6ft 3s 3s 11 13 mph 1014.2mb 69f 70f
10:50pm 2ft 3s 3s 13 18 mph 1014.4mb 69f 70f
9:50pm 2ft 3s 3s 16 18 mph 1014.2mb 69f 70f
8:50pm 1.6ft 3s 3s 16 18 mph 1013.6mb 69f 70f
7:50pm 1.6ft 3s 3s 16 18 mph 1013.4mb 69f 70f
6:50pm 1.6ft 3s 3s 16 18 mph 1013.5mb 69f 70f
5:50pm 1ft 12s 3s 13 16 mph 1014mb 70f 70f
4:50pm 1ft 13s 4s 13 16 mph 1014.2mb 70f 70f
3:50pm 1ft 13s 6s 11 13 mph 1014.4mb 70f 70f
2:50pm 1ft 9s 5s 9 11 mph 1015.4mb 71f 69f
1:50pm 1ft 8s 5s 4 7 mph 1016.1mb 71f 69f
12:50pm 1ft 9s 4s 2
mph
1016.4mb 70f 68f
11:50am 1ft 8s 4s 2 4 mph 1016.8mb 69f 68f
10:50am 1.3ft 3s 4s 4 7 mph 1016.6mb 69f 67f
9:50am 1.3ft 9s 4s 7 9 mph 1016.6mb 68f 67f
8:50am 1.6ft 3s 4s 9 11 mph 1016.4mb 68f 67f
7:50am 1.6ft 3s 3s 11 13 mph 1016mb 68f 66f
6:50am 1.6ft 3s 3s 16 18 mph 1015.6mb 68f 67f
5:50am 1.3ft 9s 4s 13 16 mph 1015.2mb 68f 68f
4:50am 1ft 9s 4s 11 13 mph 1015.1mb 69f 68f
3:50am 1ft 9s 5s 11 13 mph 1014.8mb 69f 69f
2:50am 1ft 12s 4s 9 11 mph 1014.7mb 68f 69f
1:50am 1ft 14s 4s 9 11 mph 1015.3mb 69f 69f
12:50am 1.3ft 9s 4s 9 11 mph 1015.5mb 69f 69f
Tue 04/21 11:50pm 1.3ft 9s 4s 9 11 mph 1015.4mb 69f 69f
10:50pm 1.3ft 9s 4s 11 13 mph 1015.3mb 69f 69f
9:50pm 1.3ft 8s 4s 11 13 mph 1014.5mb 69f 69f
8:50pm 1.3ft 8s 4s 11
mph
1013.9mb 70f 69f
7:50pm 1.3ft 13s 4s 9 11 mph 1013.7mb 70f 70f
6:50pm 1.3ft 12s 6s 11 13 mph 1013.5mb 70f 70f
5:50pm 1.3ft 13s 5s 9
mph
1013.9mb 71f 70f